x

Central Dixon Entrance Buoy (46145) Wave Buoy

2:00am - Tue 2nd Sep 2014 All times are PDT. -7 hours from GMT.

  • Sig Wave height 5.9ft
  • Peak Period 10s
  • Wind
    9mph, 11mph gusts
  • Sea Temp 55°f
  • Air Temp 56°f
  • Sea Pressure 1014.4mb
  • Central Dixon Entrance Buoy
  • Central Dixon Entrance Buoy

More Historic Weather Station data

Upgrade to MSW Pro to gain access to the past 30 days of data for over 8000 Wavebouys and Weather Stations around the globe.

Join Pro

Comparision Forecast

View Surf forecast
   
Tue 09/02 2:00am 6ft 10s 9 11 mph 1014.4mb 55f 56f
1:00am 5ft 10s 11 13 mph 1014.2mb 55f 56f
12:00am 5ft 9s 11 13 mph 1013.8mb 55f 56f
Mon 09/01 11:00pm 5ft 10s 11 13 mph 1013.6mb 55f 56f
10:00pm 4.5ft 10s 4 7 mph 1013.6mb 56f 56f
9:00pm 5ft 10s 7 9 mph 1013.5mb 55f 56f
8:00pm 5ft 10s 4 7 mph 1013.1mb 55f 56f
7:00pm 5.5ft 10s 7 9 mph 1013.2mb 55f 56f
6:00pm 6ft 8s 9 11 mph 1013mb 55f 56f
5:00pm 5.5ft 9s 11 13 mph 1013.1mb 55f 56f
4:00pm 6ft 9s 16 18 mph 1013mb 55f 57f
3:00pm 5ft 10s 13 16 mph 1012.7mb 55f 57f
2:00pm 5ft 9s 13 20 mph 1012.6mb 56f 56f
1:00pm 4.5ft 8s 16 18 mph 1012.2mb 56f 56f
12:00pm 4.5ft 8s 13 16 mph 1011.5mb 56f 56f
11:00am 4ft 8s 13 16 mph 1010.9mb 55f 56f
10:00am 3.5ft 8s 13 18 mph 1010.3mb 54f 56f
9:00am 4ft 8s 11 16 mph 1009.9mb 54f 56f
8:00am 4.5ft 8s 9
mph
1009.5mb 54f 56f
7:00am 4.5ft 7s 13 16 mph 1009.3mb 54f 55f
6:00am 5ft 8s 9 11 mph 1009.1mb 54f 55f
5:00am 4.5ft 8s 11 13 mph 1008.9mb 54f 56f
4:00am 4.5ft 8s 13 16 mph 1008.8mb 54f 57f
3:00am 5ft 7s 22 29 mph 1008.2mb 54f 56f
2:00am 4.5ft 8s 20 25 mph 1007.9mb 55f 57f
1:00am 4.5ft 7s 16 18 mph 1007.3mb 55f 57f
12:00am 3.5ft 7s 13 18 mph 1006.8mb 55f 57f
Sun 08/31 11:00pm 3.5ft 7s 11 13 mph 1006.2mb 55f 57f
10:00pm 3ft 8s 13 16 mph 1005.7mb 55f 57f
9:00pm 3ft 7s 9 13 mph 1005.4mb 54f 56f
8:00pm 3.5ft 8s 13 16 mph 1004.8mb 54f 57f
7:00pm 3.5ft 8s 9 11 mph 1004.6mb 54f 56f
6:00pm 4ft 9s 16 18 mph 1004.2mb 55f 56f
5:00pm 4ft 4s 20 22 mph 1004.6mb 55f 56f
3:00pm 4.5ft 9s 25 31 mph 1005.2mb 55f 56f
2:00pm 4ft 8s 22 27 mph 1005.9mb 55f 56f
1:00pm 3.5ft 8s 18 22 mph 1007.1mb 56f 56f
12:00pm 3ft 8s 22 27 mph 1007.5mb 56f 56f
11:00am 3ft 8s 18 22 mph 1007.8mb 56f 56f
10:00am 3ft 8s 18 22 mph 1007.7mb 56f 56f
9:00am 3ft 8s 18 22 mph 1008.3mb 56f 55f
8:00am 3.5ft 8s 16 18 mph 1008.8mb 56f 55f
7:00am 4.5ft 8s 16 18 mph 1009.1mb 55f 55f
6:00am 5ft 8s 16 18 mph 1009.4mb 55f 55f
5:00am 5ft 8s 13 16 mph 1009.6mb 55f 56f
4:00am 5ft 9s 13 16 mph 1010.1mb 56f 56f
3:00am 5ft 9s 11 13 mph 1010.6mb 56f 56f
2:00am 5.5ft 9s 11 13 mph 1010.6mb 56f 57f
1:00am 5ft 8s 9 11 mph 1010.8mb 56f 57f
12:00am 4ft 9s 9 11 mph 1011.1mb 56f 56f
Sat 08/30 11:00pm 3.5ft 8s 11 13 mph 1011mb 56f 57f
10:00pm 3.5ft 9s 7 9 mph 1010.9mb 56f 57f
9:00pm 4ft 9s 7 9 mph 1010.5mb 56f 57f
8:00pm 4ft 9s 9 11 mph 1010mb 56f 57f
7:00pm 4.5ft 8s 11 13 mph 1009.9mb 57f 57f
6:00pm 5ft 9s 11 13 mph 1009.9mb 57f 57f
5:00pm 4.5ft 10s 18 20 mph 1009.5mb 57f 56f
4:00pm 5ft 10s 11
mph
1009.4mb 57f 58f
3:00pm 5.5ft 10s 7 9 mph 1009.2mb 58f 58f
2:00pm 5.5ft 9s 7 9 mph 1009.1mb 57f 58f
1:00pm 5ft 10s 7 9 mph 1008.7mb 57f 58f
12:00pm 5ft 9s 9 11 mph 1008.2mb 57f 57f
11:00am 4.5ft 10s 9 11 mph 1007.6mb 57f 56f
10:00am 4.5ft 10s 7 9 mph 1007.2mb 56f 56f
9:00am 4.5ft 11s 11 13 mph 1006.7mb 56f 56f
8:00am 4.5ft 10s 9 11 mph 1006mb 56f 56f
7:00am 5ft 10s 9 11 mph 1005.6mb 56f 56f
6:00am 5ft 11s 11 13 mph 1005.2mb 56f 56f
5:00am 5ft 10s 9 11 mph 1004.9mb 56f 56f
4:00am 5ft 11s 9
mph
1004.7mb 56f 56f
3:00am 5ft 10s 11 13 mph 1004.4mb 56f 55f
2:00am 5.5ft 11s 7 9 mph 1004.3mb 56f 56f
1:00am 5.5ft 11s 9 11 mph 1004.1mb 57f 56f
12:00am 5.5ft 11s 11 13 mph 1003.8mb 57f 56f
Fri 08/29 11:00pm 6ft 10s 11 13 mph 1003.8mb 57f 55f
10:00pm 6ft 11s 9 11 mph 1003.6mb 57f 56f
9:00pm 6ft 10s 9 11 mph 1003.2mb 57f 56f
8:00pm 5ft 10s 11 13 mph 1002.9mb 56f 56f
7:00pm 6ft 10s 13 16 mph 1002.7mb 56f 56f
6:00pm 6ft 10s 16 18 mph 1002.3mb 56f 57f
5:00pm 5.5ft 10s 13 16 mph 1002.3mb 56f 56f
4:00pm 5.5ft 10s 13 18 mph 1002.2mb 57f 57f
3:00pm 5.5ft 9s 13 18 mph 1002.3mb 57f 57f
2:00pm 5ft 9s 11 13 mph 1002.5mb 57f 57f
1:00pm 5ft 8s 13 16 mph 1002.8mb 57f 57f
12:00pm 5ft 8s 13 16 mph 1003.3mb 57f 57f
11:00am 4.5ft 8s 16 18 mph 1003.6mb 57f 56f